sensor_id;sensor_type;location;lat;lon;timestamp;P1;durP1;ratioP1;P2;durP2;ratioP2
11100;SDS011;5604;50.722;7.078;2022-12-07T00:01:21;27.83;;;22.03;;
11100;SDS011;5604;50.722;7.078;2022-12-07T00:04:05;33.33;;;22.50;;
11100;SDS011;5604;50.722;7.078;2022-12-07T00:06:35;27.43;;;21.00;;
11100;SDS011;5604;50.722;7.078;2022-12-07T00:09:13;34.17;;;23.53;;
11100;SDS011;5604;50.722;7.078;2022-12-07T00:11:44;31.37;;;22.23;;
11100;SDS011;5604;50.722;7.078;2022-12-07T00:14:16;34.50;;;23.40;;
11100;SDS011;5604;50.722;7.078;2022-12-07T00:16:49;34.23;;;24.20;;
11100;SDS011;5604;50.722;7.078;2022-12-07T00:19:28;33.93;;;24.47;;
11100;SDS011;5604;50.722;7.078;2022-12-07T00:22:18;30.63;;;24.03;;
11100;SDS011;5604;50.722;7.078;2022-12-07T00:24:54;32.97;;;24.83;;
11100;SDS011;5604;50.722;7.078;2022-12-07T00:28:22;33.80;;;23.90;;
11100;SDS011;5604;50.722;7.078;2022-12-07T00:30:59;36.27;;;23.93;;
11100;SDS011;5604;50.722;7.078;2022-12-07T00:33:30;30.83;;;24.03;;
11100;SDS011;5604;50.722;7.078;2022-12-07T00:35:59;30.70;;;24.23;;
11100;SDS011;5604;50.722;7.078;2022-12-07T00:38:28;31.37;;;24.30;;
11100;SDS011;5604;50.722;7.078;2022-12-07T00:40:58;29.10;;;23.83;;
11100;SDS011;5604;50.722;7.078;2022-12-07T00:43:27;30.73;;;22.63;;
11100;SDS011;5604;50.722;7.078;2022-12-07T00:45:56;33.70;;;23.90;;
11100;SDS011;5604;50.722;7.078;2022-12-07T00:48:24;31.70;;;24.10;;
11100;SDS011;5604;50.722;7.078;2022-12-07T00:50:52;29.70;;;22.63;;
11100;SDS011;5604;50.722;7.078;2022-12-07T00:53:21;32.73;;;24.23;;
11100;SDS011;5604;50.722;7.078;2022-12-07T00:55:49;31.20;;;23.50;;
11100;SDS011;5604;50.722;7.078;2022-12-07T00:58:20;28.87;;;23.20;;
11100;SDS011;5604;50.722;7.078;2022-12-07T01:00:50;32.23;;;23.50;;
11100;SDS011;5604;50.722;7.078;2022-12-07T01:03:18;33.10;;;24.83;;
11100;SDS011;5604;50.722;7.078;2022-12-07T01:05:50;30.50;;;24.80;;
11100;SDS011;5604;50.722;7.078;2022-12-07T01:08:19;33.00;;;25.43;;
11100;SDS011;5604;50.722;7.078;2022-12-07T01:10:47;33.07;;;26.13;;
11100;SDS011;5604;50.722;7.078;2022-12-07T01:13:16;27.93;;;22.77;;
11100;SDS011;5604;50.722;7.078;2022-12-07T01:15:45;29.07;;;24.37;;
11100;SDS011;5604;50.722;7.078;2022-12-07T01:18:13;29.57;;;24.53;;
11100;SDS011;5604;50.722;7.078;2022-12-07T01:20:42;30.53;;;24.00;;
11100;SDS011;5604;50.722;7.078;2022-12-07T01:23:10;30.50;;;24.50;;
11100;SDS011;5604;50.722;7.078;2022-12-07T01:25:38;32.47;;;23.40;;
11100;SDS011;5604;50.722;7.078;2022-12-07T01:28:06;31.10;;;24.20;;
11100;SDS011;5604;50.722;7.078;2022-12-07T01:30:34;29.17;;;23.60;;
11100;SDS011;5604;50.722;7.078;2022-12-07T01:33:03;30.37;;;24.03;;
11100;SDS011;5604;50.722;7.078;2022-12-07T01:35:33;28.67;;;23.37;;
11100;SDS011;5604;50.722;7.078;2022-12-07T01:38:01;30.43;;;23.40;;
11100;SDS011;5604;50.722;7.078;2022-12-07T01:40:29;31.07;;;23.43;;
11100;SDS011;5604;50.722;7.078;2022-12-07T01:42:57;31.90;;;23.77;;
11100;SDS011;5604;50.722;7.078;2022-12-07T01:48:14;29.50;;;23.13;;
11100;SDS011;5604;50.722;7.078;2022-12-07T01:50:44;29.37;;;23.47;;
11100;SDS011;5604;50.722;7.078;2022-12-07T01:53:15;30.77;;;24.33;;
11100;SDS011;5604;50.722;7.078;2022-12-07T01:55:45;31.40;;;22.73;;
11100;SDS011;5604;50.722;7.078;2022-12-07T01:58:14;33.03;;;24.43;;
11100;SDS011;5604;50.722;7.078;2022-12-07T02:00:43;31.67;;;24.40;;
11100;SDS011;5604;50.722;7.078;2022-12-07T02:03:12;32.03;;;24.47;;
11100;SDS011;5604;50.722;7.078;2022-12-07T02:05:44;31.57;;;24.40;;
11100;SDS011;5604;50.722;7.078;2022-12-07T02:08:14;30.63;;;24.77;;
11100;SDS011;5604;50.722;7.078;2022-12-07T02:10:42;32.47;;;25.73;;
11100;SDS011;5604;50.722;7.078;2022-12-07T02:13:13;34.10;;;25.77;;
11100;SDS011;5604;50.722;7.078;2022-12-07T02:18:51;34.53;;;24.70;;
11100;SDS011;5604;50.722;7.078;2022-12-07T02:21:29;34.60;;;25.93;;
11100;SDS011;5604;50.722;7.078;2022-12-07T02:24:11;29.00;;;24.77;;
11100;SDS011;5604;50.722;7.078;2022-12-07T02:26:49;30.30;;;25.90;;
11100;SDS011;5604;50.722;7.078;2022-12-07T02:29:25;35.23;;;26.57;;
11100;SDS011;5604;50.722;7.078;2022-12-07T02:31:56;32.53;;;25.77;;
11100;SDS011;5604;50.722;7.078;2022-12-07T02:34:31;35.77;;;26.80;;
11100;SDS011;5604;50.722;7.078;2022-12-07T02:37:05;35.77;;;27.20;;
11100;SDS011;5604;50.722;7.078;2022-12-07T02:39:39;37.70;;;27.67;;
11100;SDS011;5604;50.722;7.078;2022-12-07T02:42:12;34.43;;;26.40;;
11100;SDS011;5604;50.722;7.078;2022-12-07T02:44:43;36.17;;;28.37;;
11100;SDS011;5604;50.722;7.078;2022-12-07T02:47:12;35.23;;;26.80;;
11100;SDS011;5604;50.722;7.078;2022-12-07T02:49:42;34.53;;;26.73;;
11100;SDS011;5604;50.722;7.078;2022-12-07T02:52:11;35.67;;;26.67;;
11100;SDS011;5604;50.722;7.078;2022-12-07T02:54:39;34.43;;;26.47;;
11100;SDS011;5604;50.722;7.078;2022-12-07T02:57:11;35.10;;;26.70;;
11100;SDS011;5604;50.722;7.078;2022-12-07T02:59:51;33.10;;;25.87;;
11100;SDS011;5604;50.722;7.078;2022-12-07T03:02:30;36.10;;;27.03;;
11100;SDS011;5604;50.722;7.078;2022-12-07T03:05:08;36.13;;;26.93;;
11100;SDS011;5604;50.722;7.078;2022-12-07T03:07:45;34.03;;;26.63;;
11100;SDS011;5604;50.722;7.078;2022-12-07T03:10:20;31.73;;;25.50;;
11100;SDS011;5604;50.722;7.078;2022-12-07T03:12:55;32.00;;;26.33;;
11100;SDS011;5604;50.722;7.078;2022-12-07T03:15:32;34.47;;;25.77;;
11100;SDS011;5604;50.722;7.078;2022-12-07T03:18:02;33.47;;;26.47;;
11100;SDS011;5604;50.722;7.078;2022-12-07T03:20:32;30.17;;;25.27;;
11100;SDS011;5604;50.722;7.078;2022-12-07T03:23:03;33.37;;;25.67;;
11100;SDS011;5604;50.722;7.078;2022-12-07T03:25:32;35.00;;;25.77;;
11100;SDS011;5604;50.722;7.078;2022-12-07T03:28:02;32.80;;;25.07;;
11100;SDS011;5604;50.722;7.078;2022-12-07T03:30:34;30.40;;;24.73;;
11100;SDS011;5604;50.722;7.078;2022-12-07T03:33:07;30.30;;;25.93;;
11100;SDS011;5604;50.722;7.078;2022-12-07T03:35:37;32.50;;;25.63;;
11100;SDS011;5604;50.722;7.078;2022-12-07T03:38:10;34.40;;;25.57;;
11100;SDS011;5604;50.722;7.078;2022-12-07T03:40:43;32.17;;;24.27;;
11100;SDS011;5604;50.722;7.078;2022-12-07T03:43:13;31.40;;;24.83;;
11100;SDS011;5604;50.722;7.078;2022-12-07T03:45:43;29.40;;;25.50;;
11100;SDS011;5604;50.722;7.078;2022-12-07T03:48:14;30.70;;;24.27;;
11100;SDS011;5604;50.722;7.078;2022-12-07T03:50:49;33.03;;;24.67;;
11100;SDS011;5604;50.722;7.078;2022-12-07T03:53:22;34.17;;;24.80;;
11100;SDS011;5604;50.722;7.078;2022-12-07T03:55:54;31.50;;;24.27;;
11100;SDS011;5604;50.722;7.078;2022-12-07T03:58:23;31.90;;;26.10;;
11100;SDS011;5604;50.722;7.078;2022-12-07T04:00:53;31.80;;;24.40;;
11100;SDS011;5604;50.722;7.078;2022-12-07T04:03:21;31.83;;;24.07;;
11100;SDS011;5604;50.722;7.078;2022-12-07T04:05:49;31.70;;;26.33;;
11100;SDS011;5604;50.722;7.078;2022-12-07T04:08:17;27.03;;;22.50;;
11100;SDS011;5604;50.722;7.078;2022-12-07T04:10:45;31.00;;;24.17;;
11100;SDS011;5604;50.722;7.078;2022-12-07T04:13:14;30.70;;;24.47;;
11100;SDS011;5604;50.722;7.078;2022-12-07T04:15:42;28.47;;;23.07;;
11100;SDS011;5604;50.722;7.078;2022-12-07T04:18:11;31.17;;;24.63;;
11100;SDS011;5604;50.722;7.078;2022-12-07T04:20:39;27.53;;;23.47;;
11100;SDS011;5604;50.722;7.078;2022-12-07T04:23:08;35.80;;;25.13;;
11100;SDS011;5604;50.722;7.078;2022-12-07T04:25:36;30.73;;;24.77;;
11100;SDS011;5604;50.722;7.078;2022-12-07T04:28:04;32.00;;;24.73;;
11100;SDS011;5604;50.722;7.078;2022-12-07T04:30:32;33.40;;;25.60;;
11100;SDS011;5604;50.722;7.078;2022-12-07T04:33:00;31.73;;;25.20;;
11100;SDS011;5604;50.722;7.078;2022-12-07T04:35:30;31.23;;;25.00;;
11100;SDS011;5604;50.722;7.078;2022-12-07T04:37:58;31.27;;;25.50;;
11100;SDS011;5604;50.722;7.078;2022-12-07T04:40:26;29.93;;;23.57;;
11100;SDS011;5604;50.722;7.078;2022-12-07T04:42:54;32.47;;;23.80;;
11100;SDS011;5604;50.722;7.078;2022-12-07T04:45:22;31.27;;;24.60;;
11100;SDS011;5604;50.722;7.078;2022-12-07T04:47:50;35.53;;;25.83;;
11100;SDS011;5604;50.722;7.078;2022-12-07T04:50:18;32.47;;;24.77;;
11100;SDS011;5604;50.722;7.078;2022-12-07T04:52:48;31.67;;;24.30;;
11100;SDS011;5604;50.722;7.078;2022-12-07T04:55:17;31.73;;;24.50;;
11100;SDS011;5604;50.722;7.078;2022-12-07T04:57:45;34.77;;;26.37;;
11100;SDS011;5604;50.722;7.078;2022-12-07T05:00:13;36.50;;;26.17;;
11100;SDS011;5604;50.722;7.078;2022-12-07T05:02:41;30.83;;;24.63;;
11100;SDS011;5604;50.722;7.078;2022-12-07T05:05:10;33.90;;;25.00;;
11100;SDS011;5604;50.722;7.078;2022-12-07T05:07:38;35.73;;;25.83;;
11100;SDS011;5604;50.722;7.078;2022-12-07T05:10:08;33.00;;;25.10;;
11100;SDS011;5604;50.722;7.078;2022-12-07T05:12:37;31.83;;;24.53;;
11100;SDS011;5604;50.722;7.078;2022-12-07T05:15:05;35.73;;;25.57;;
11100;SDS011;5604;50.722;7.078;2022-12-07T05:17:33;35.10;;;25.57;;
11100;SDS011;5604;50.722;7.078;2022-12-07T05:20:02;31.27;;;24.53;;
11100;SDS011;5604;50.722;7.078;2022-12-07T05:22:30;32.30;;;23.97;;
11100;SDS011;5604;50.722;7.078;2022-12-07T05:24:58;35.43;;;25.30;;
11100;SDS011;5604;50.722;7.078;2022-12-07T05:27:28;34.27;;;24.67;;
11100;SDS011;5604;50.722;7.078;2022-12-07T05:29:56;35.63;;;25.63;;
11100;SDS011;5604;50.722;7.078;2022-12-07T05:32:25;31.70;;;24.40;;
11100;SDS011;5604;50.722;7.078;2022-12-07T05:34:53;31.33;;;23.73;;
11100;SDS011;5604;50.722;7.078;2022-12-07T05:37:22;33.13;;;25.10;;
11100;SDS011;5604;50.722;7.078;2022-12-07T05:39:50;36.93;;;23.80;;
11100;SDS011;5604;50.722;7.078;2022-12-07T05:42:18;34.23;;;24.30;;
11100;SDS011;5604;50.722;7.078;2022-12-07T05:44:47;37.63;;;24.27;;
11100;SDS011;5604;50.722;7.078;2022-12-07T05:47:16;36.53;;;24.47;;
11100;SDS011;5604;50.722;7.078;2022-12-07T05:49:44;34.43;;;24.00;;
11100;SDS011;5604;50.722;7.078;2022-12-07T05:52:13;34.20;;;24.23;;
11100;SDS011;5604;50.722;7.078;2022-12-07T05:54:41;34.43;;;22.27;;
11100;SDS011;5604;50.722;7.078;2022-12-07T05:57:09;32.20;;;23.30;;
11100;SDS011;5604;50.722;7.078;2022-12-07T05:59:37;32.30;;;22.10;;
11100;SDS011;5604;50.722;7.078;2022-12-07T06:02:06;32.13;;;21.43;;
11100;SDS011;5604;50.722;7.078;2022-12-07T06:04:37;34.40;;;22.83;;
11100;SDS011;5604;50.722;7.078;2022-12-07T06:07:06;33.13;;;21.90;;
11100;SDS011;5604;50.722;7.078;2022-12-07T06:09:35;30.43;;;22.60;;
11100;SDS011;5604;50.722;7.078;2022-12-07T06:12:03;35.57;;;23.53;;
11100;SDS011;5604;50.722;7.078;2022-12-07T06:14:49;30.00;;;22.90;;
11100;SDS011;5604;50.722;7.078;2022-12-07T06:17:19;32.43;;;23.90;;
11100;SDS011;5604;50.722;7.078;2022-12-07T06:19:47;33.40;;;23.33;;
11100;SDS011;5604;50.722;7.078;2022-12-07T06:22:15;35.10;;;22.93;;
11100;SDS011;5604;50.722;7.078;2022-12-07T06:24:44;31.70;;;23.37;;
11100;SDS011;5604;50.722;7.078;2022-12-07T06:27:12;32.27;;;23.23;;
11100;SDS011;5604;50.722;7.078;2022-12-07T06:29:40;32.00;;;23.80;;
11100;SDS011;5604;50.722;7.078;2022-12-07T06:32:08;35.17;;;23.53;;
11100;SDS011;5604;50.722;7.078;2022-12-07T06:34:38;33.40;;;24.10;;
11100;SDS011;5604;50.722;7.078;2022-12-07T06:37:06;36.20;;;22.97;;
11100;SDS011;5604;50.722;7.078;2022-12-07T06:39:34;34.47;;;23.13;;
11100;SDS011;5604;50.722;7.078;2022-12-07T06:42:03;35.07;;;23.20;;
11100;SDS011;5604;50.722;7.078;2022-12-07T06:44:31;32.50;;;23.60;;
11100;SDS011;5604;50.722;7.078;2022-12-07T06:46:59;34.07;;;23.57;;
11100;SDS011;5604;50.722;7.078;2022-12-07T06:49:49;32.73;;;22.83;;
11100;SDS011;5604;50.722;7.078;2022-12-07T06:52:18;33.83;;;23.30;;
11100;SDS011;5604;50.722;7.078;2022-12-07T06:54:46;35.27;;;24.40;;
11100;SDS011;5604;50.722;7.078;2022-12-07T06:57:14;32.13;;;23.33;;
11100;SDS011;5604;50.722;7.078;2022-12-07T06:59:42;32.60;;;22.47;;
11100;SDS011;5604;50.722;7.078;2022-12-07T07:02:10;28.97;;;22.47;;
11100;SDS011;5604;50.722;7.078;2022-12-07T07:04:39;29.93;;;20.70;;
11100;SDS011;5604;50.722;7.078;2022-12-07T07:07:08;28.93;;;20.23;;
11100;SDS011;5604;50.722;7.078;2022-12-07T07:09:37;28.07;;;19.23;;
11100;SDS011;5604;50.722;7.078;2022-12-07T07:12:05;26.13;;;18.73;;
11100;SDS011;5604;50.722;7.078;2022-12-07T07:14:33;29.87;;;18.77;;
11100;SDS011;5604;50.722;7.078;2022-12-07T07:17:01;26.57;;;18.00;;
11100;SDS011;5604;50.722;7.078;2022-12-07T07:19:29;24.73;;;17.33;;
11100;SDS011;5604;50.722;7.078;2022-12-07T07:21:58;24.20;;;18.33;;
11100;SDS011;5604;50.722;7.078;2022-12-07T07:24:27;26.60;;;17.77;;
11100;SDS011;5604;50.722;7.078;2022-12-07T07:26:55;26.00;;;17.17;;
11100;SDS011;5604;50.722;7.078;2022-12-07T07:29:23;31.00;;;18.43;;
11100;SDS011;5604;50.722;7.078;2022-12-07T07:31:51;27.57;;;18.07;;
11100;SDS011;5604;50.722;7.078;2022-12-07T07:34:19;28.37;;;18.27;;
11100;SDS011;5604;50.722;7.078;2022-12-07T07:36:47;29.17;;;18.90;;
11100;SDS011;5604;50.722;7.078;2022-12-07T07:39:16;25.40;;;17.60;;
11100;SDS011;5604;50.722;7.078;2022-12-07T07:41:45;27.07;;;17.97;;
11100;SDS011;5604;50.722;7.078;2022-12-07T07:44:23;27.37;;;18.47;;
11100;SDS011;5604;50.722;7.078;2022-12-07T07:46:58;32.73;;;19.33;;
11100;SDS011;5604;50.722;7.078;2022-12-07T07:49:26;25.53;;;17.97;;
11100;SDS011;5604;50.722;7.078;2022-12-07T07:51:54;30.57;;;19.50;;
11100;SDS011;5604;50.722;7.078;2022-12-07T07:54:22;24.97;;;18.43;;
11100;SDS011;5604;50.722;7.078;2022-12-07T07:56:53;26.10;;;17.93;;
11100;SDS011;5604;50.722;7.078;2022-12-07T07:59:21;24.90;;;18.23;;
11100;SDS011;5604;50.722;7.078;2022-12-07T08:01:49;25.10;;;19.33;;
11100;SDS011;5604;50.722;7.078;2022-12-07T08:04:17;25.93;;;19.27;;
11100;SDS011;5604;50.722;7.078;2022-12-07T08:06:45;29.43;;;19.80;;
11100;SDS011;5604;50.722;7.078;2022-12-07T08:09:13;27.33;;;20.17;;
11100;SDS011;5604;50.722;7.078;2022-12-07T08:11:44;30.00;;;20.70;;
11100;SDS011;5604;50.722;7.078;2022-12-07T08:14:14;26.23;;;20.33;;
11100;SDS011;5604;50.722;7.078;2022-12-07T08:16:42;31.03;;;21.60;;
11100;SDS011;5604;50.722;7.078;2022-12-07T08:19:10;32.57;;;21.73;;
11100;SDS011;5604;50.722;7.078;2022-12-07T08:21:38;27.97;;;21.67;;
11100;SDS011;5604;50.722;7.078;2022-12-07T08:24:06;29.27;;;19.77;;
11100;SDS011;5604;50.722;7.078;2022-12-07T08:26:34;29.77;;;20.40;;
11100;SDS011;5604;50.722;7.078;2022-12-07T08:29:02;30.33;;;21.23;;
11100;SDS011;5604;50.722;7.078;2022-12-07T08:31:32;32.53;;;21.20;;
11100;SDS011;5604;50.722;7.078;2022-12-07T08:34:00;29.30;;;19.70;;
11100;SDS011;5604;50.722;7.078;2022-12-07T08:36:29;33.57;;;21.43;;
11100;SDS011;5604;50.722;7.078;2022-12-07T08:38:57;29.60;;;20.87;;
11100;SDS011;5604;50.722;7.078;2022-12-07T08:41:45;32.27;;;21.43;;
11100;SDS011;5604;50.722;7.078;2022-12-07T08:44:14;28.20;;;20.60;;
11100;SDS011;5604;50.722;7.078;2022-12-07T08:46:44;32.03;;;20.93;;
11100;SDS011;5604;50.722;7.078;2022-12-07T08:49:15;29.73;;;20.93;;
11100;SDS011;5604;50.722;7.078;2022-12-07T08:51:45;31.67;;;21.47;;
11100;SDS011;5604;50.722;7.078;2022-12-07T08:54:15;30.90;;;20.00;;
11100;SDS011;5604;50.722;7.078;2022-12-07T08:56:45;33.53;;;21.00;;
11100;SDS011;5604;50.722;7.078;2022-12-07T08:59:17;26.83;;;19.97;;
11100;SDS011;5604;50.722;7.078;2022-12-07T09:01:47;30.50;;;21.03;;
11100;SDS011;5604;50.722;7.078;2022-12-07T09:04:15;32.60;;;19.73;;
11100;SDS011;5604;50.722;7.078;2022-12-07T09:06:44;26.53;;;18.20;;
11100;SDS011;5604;50.722;7.078;2022-12-07T09:09:12;31.10;;;19.60;;
11100;SDS011;5604;50.722;7.078;2022-12-07T09:11:43;28.20;;;17.97;;
11100;SDS011;5604;50.722;7.078;2022-12-07T09:14:12;29.30;;;18.47;;
11100;SDS011;5604;50.722;7.078;2022-12-07T09:16:40;27.77;;;17.43;;
11100;SDS011;5604;50.722;7.078;2022-12-07T09:19:10;24.13;;;16.83;;
11100;SDS011;5604;50.722;7.078;2022-12-07T09:21:39;24.83;;;17.60;;
11100;SDS011;5604;50.722;7.078;2022-12-07T09:24:07;26.80;;;17.83;;
11100;SDS011;5604;50.722;7.078;2022-12-07T09:26:35;23.80;;;16.10;;
11100;SDS011;5604;50.722;7.078;2022-12-07T09:29:05;26.30;;;16.80;;
11100;SDS011;5604;50.722;7.078;2022-12-07T09:31:35;24.80;;;15.73;;
11100;SDS011;5604;50.722;7.078;2022-12-07T09:34:05;23.73;;;15.43;;
11100;SDS011;5604;50.722;7.078;2022-12-07T09:36:35;23.33;;;14.63;;
11100;SDS011;5604;50.722;7.078;2022-12-07T09:39:05;21.63;;;13.57;;
11100;SDS011;5604;50.722;7.078;2022-12-07T09:41:33;25.67;;;15.43;;
11100;SDS011;5604;50.722;7.078;2022-12-07T09:44:06;20.53;;;14.20;;
11100;SDS011;5604;50.722;7.078;2022-12-07T09:46:38;21.57;;;13.27;;
11100;SDS011;5604;50.722;7.078;2022-12-07T09:49:09;15.93;;;12.80;;
11100;SDS011;5604;50.722;7.078;2022-12-07T09:51:43;23.40;;;13.27;;
11100;SDS011;5604;50.722;7.078;2022-12-07T09:54:12;17.43;;;12.83;;
11100;SDS011;5604;50.722;7.078;2022-12-07T09:56:41;20.60;;;12.53;;
11100;SDS011;5604;50.722;7.078;2022-12-07T09:59:12;15.53;;;12.27;;
11100;SDS011;5604;50.722;7.078;2022-12-07T10:01:42;21.57;;;11.87;;
11100;SDS011;5604;50.722;7.078;2022-12-07T10:04:11;17.77;;;12.27;;
11100;SDS011;5604;50.722;7.078;2022-12-07T10:06:43;18.37;;;12.57;;
11100;SDS011;5604;50.722;7.078;2022-12-07T10:09:12;17.50;;;12.20;;
11100;SDS011;5604;50.722;7.078;2022-12-07T10:14:30;27.47;;;12.93;;
11100;SDS011;5604;50.722;7.078;2022-12-07T10:17:30;13.47;;;10.97;;
11100;SDS011;5604;50.722;7.078;2022-12-07T10:20:17;15.53;;;10.83;;
11100;SDS011;5604;50.722;7.078;2022-12-07T10:22:59;19.03;;;10.87;;
11100;SDS011;5604;50.722;7.078;2022-12-07T10:25:29;15.27;;;10.33;;
11100;SDS011;5604;50.722;7.078;2022-12-07T10:28:01;15.53;;;9.77;;
11100;SDS011;5604;50.722;7.078;2022-12-07T10:30:31;16.00;;;9.80;;
11100;SDS011;5604;50.722;7.078;2022-12-07T10:33:00;17.67;;;12.20;;
11100;SDS011;5604;50.722;7.078;2022-12-07T10:35:28;17.20;;;10.13;;
11100;SDS011;5604;50.722;7.078;2022-12-07T10:37:59;14.07;;;9.20;;
11100;SDS011;5604;50.722;7.078;2022-12-07T10:40:32;15.20;;;10.10;;
11100;SDS011;5604;50.722;7.078;2022-12-07T10:43:02;12.83;;;8.50;;
11100;SDS011;5604;50.722;7.078;2022-12-07T10:45:32;13.60;;;9.40;;
11100;SDS011;5604;50.722;7.078;2022-12-07T10:48:22;12.03;;;8.77;;
11100;SDS011;5604;50.722;7.078;2022-12-07T10:50:58;13.17;;;8.60;;
11100;SDS011;5604;50.722;7.078;2022-12-07T10:53:34;13.93;;;8.70;;
11100;SDS011;5604;50.722;7.078;2022-12-07T10:56:28;10.83;;;8.00;;
11100;SDS011;5604;50.722;7.078;2022-12-07T10:59:11;13.27;;;8.50;;
11100;SDS011;5604;50.722;7.078;2022-12-07T11:01:49;11.63;;;9.00;;
11100;SDS011;5604;50.722;7.078;2022-12-07T11:04:21;11.40;;;8.10;;
11100;SDS011;5604;50.722;7.078;2022-12-07T11:06:58;12.60;;;8.70;;
11100;SDS011;5604;50.722;7.078;2022-12-07T11:09:42;14.60;;;7.60;;
11100;SDS011;5604;50.722;7.078;2022-12-07T11:12:39;11.40;;;6.80;;
11100;SDS011;5604;50.722;7.078;2022-12-07T11:15:17;9.60;;;6.80;;
11100;SDS011;5604;50.722;7.078;2022-12-07T11:17:51;9.00;;;6.77;;
11100;SDS011;5604;50.722;7.078;2022-12-07T11:20:27;10.10;;;6.30;;
11100;SDS011;5604;50.722;7.078;2022-12-07T11:23:03;10.80;;;7.40;;
11100;SDS011;5604;50.722;7.078;2022-12-07T11:25:42;11.27;;;6.23;;
11100;SDS011;5604;50.722;7.078;2022-12-07T11:28:18;9.27;;;5.47;;
11100;SDS011;5604;50.722;7.078;2022-12-07T11:31:01;10.00;;;5.63;;
11100;SDS011;5604;50.722;7.078;2022-12-07T11:33:35;9.77;;;5.33;;
11100;SDS011;5604;50.722;7.078;2022-12-07T11:36:17;9.43;;;5.90;;
11100;SDS011;5604;50.722;7.078;2022-12-07T11:39:02;10.93;;;6.33;;
11100;SDS011;5604;50.722;7.078;2022-12-07T11:41:34;10.17;;;4.97;;
11100;SDS011;5604;50.722;7.078;2022-12-07T11:44:05;6.60;;;4.63;;
11100;SDS011;5604;50.722;7.078;2022-12-07T11:46:48;8.27;;;5.17;;
11100;SDS011;5604;50.722;7.078;2022-12-07T11:49:20;9.63;;;4.83;;
11100;SDS011;5604;50.722;7.078;2022-12-07T11:51:52;7.00;;;4.57;;
11100;SDS011;5604;50.722;7.078;2022-12-07T11:54:23;13.70;;;6.37;;
11100;SDS011;5604;50.722;7.078;2022-12-07T11:56:56;13.60;;;5.73;;
11100;SDS011;5604;50.722;7.078;2022-12-07T11:59:31;11.60;;;5.50;;
11100;SDS011;5604;50.722;7.078;2022-12-07T12:02:03;27.53;;;6.83;;
11100;SDS011;5604;50.722;7.078;2022-12-07T12:04:42;16.23;;;6.43;;
11100;SDS011;5604;50.722;7.078;2022-12-07T12:07:16;22.73;;;8.33;;
11100;SDS011;5604;50.722;7.078;2022-12-07T12:10:16;9.40;;;5.00;;
11100;SDS011;5604;50.722;7.078;2022-12-07T12:16:05;14.57;;;6.13;;
11100;SDS011;5604;50.722;7.078;2022-12-07T12:18:45;11.20;;;5.37;;
11100;SDS011;5604;50.722;7.078;2022-12-07T12:21:20;15.00;;;5.93;;
11100;SDS011;5604;50.722;7.078;2022-12-07T12:23:51;14.43;;;6.40;;
11100;SDS011;5604;50.722;7.078;2022-12-07T12:26:26;9.77;;;6.13;;
11100;SDS011;5604;50.722;7.078;2022-12-07T12:28:57;75.97;;;16.13;;
11100;SDS011;5604;50.722;7.078;2022-12-07T12:31:37;81.23;;;17.20;;
11100;SDS011;5604;50.722;7.078;2022-12-07T12:36:59;47.73;;;10.43;;
11100;SDS011;5604;50.722;7.078;2022-12-07T12:39:27;87.60;;;16.40;;
11100;SDS011;5604;50.722;7.078;2022-12-07T12:41:56;30.90;;;9.23;;
11100;SDS011;5604;50.722;7.078;2022-12-07T12:44:40;20.67;;;8.80;;
11100;SDS011;5604;50.722;7.078;2022-12-07T12:47:40;40.97;;;10.27;;
11100;SDS011;5604;50.722;7.078;2022-12-07T12:50:12;32.57;;;13.70;;
11100;SDS011;5604;50.722;7.078;2022-12-07T12:55:52;16.07;;;7.87;;
11100;SDS011;5604;50.722;7.078;2022-12-07T12:58:38;19.97;;;7.80;;
11100;SDS011;5604;50.722;7.078;2022-12-07T13:10:21;18.77;;;7.27;;
11100;SDS011;5604;50.722;7.078;2022-12-07T13:12:55;16.30;;;8.00;;
11100;SDS011;5604;50.722;7.078;2022-12-07T13:15:31;11.07;;;7.30;;
11100;SDS011;5604;50.722;7.078;2022-12-07T13:18:03;13.30;;;7.53;;
11100;SDS011;5604;50.722;7.078;2022-12-07T13:20:49;14.40;;;9.03;;
11100;SDS011;5604;50.722;7.078;2022-12-07T13:23:20;15.00;;;8.20;;
11100;SDS011;5604;50.722;7.078;2022-12-07T13:25:51;13.03;;;6.70;;
11100;SDS011;5604;50.722;7.078;2022-12-07T13:28:23;11.50;;;7.07;;
11100;SDS011;5604;50.722;7.078;2022-12-07T13:31:03;11.30;;;7.40;;
11100;SDS011;5604;50.722;7.078;2022-12-07T13:33:38;13.37;;;7.17;;
11100;SDS011;5604;50.722;7.078;2022-12-07T13:36:09;15.60;;;8.93;;
11100;SDS011;5604;50.722;7.078;2022-12-07T13:38:47;11.17;;;8.50;;
11100;SDS011;5604;50.722;7.078;2022-12-07T13:41:18;15.57;;;9.73;;
11100;SDS011;5604;50.722;7.078;2022-12-07T13:43:52;15.63;;;8.17;;
11100;SDS011;5604;50.722;7.078;2022-12-07T13:46:24;15.80;;;7.67;;
11100;SDS011;5604;50.722;7.078;2022-12-07T13:48:57;15.13;;;7.90;;
11100;SDS011;5604;50.722;7.078;2022-12-07T13:51:25;12.33;;;8.10;;
11100;SDS011;5604;50.722;7.078;2022-12-07T13:53:56;15.63;;;7.17;;
11100;SDS011;5604;50.722;7.078;2022-12-07T13:56:31;9.70;;;6.70;;
11100;SDS011;5604;50.722;7.078;2022-12-07T13:59:01;13.30;;;7.87;;
11100;SDS011;5604;50.722;7.078;2022-12-07T14:01:30;14.17;;;8.03;;
11100;SDS011;5604;50.722;7.078;2022-12-07T14:06:47;15.40;;;6.70;;
11100;SDS011;5604;50.722;7.078;2022-12-07T14:09:18;13.43;;;5.77;;
11100;SDS011;5604;50.722;7.078;2022-12-07T14:11:47;7.57;;;4.83;;
11100;SDS011;5604;50.722;7.078;2022-12-07T14:14:17;11.93;;;5.07;;
11100;SDS011;5604;50.722;7.078;2022-12-07T14:17:01;10.77;;;5.70;;
11100;SDS011;5604;50.722;7.078;2022-12-07T14:19:48;14.40;;;5.83;;
11100;SDS011;5604;50.722;7.078;2022-12-07T14:22:26;20.77;;;6.97;;
11100;SDS011;5604;50.722;7.078;2022-12-07T14:24:59;8.10;;;4.47;;
11100;SDS011;5604;50.722;7.078;2022-12-07T14:27:30;13.97;;;5.63;;
11100;SDS011;5604;50.722;7.078;2022-12-07T14:30:01;8.57;;;4.20;;
11100;SDS011;5604;50.722;7.078;2022-12-07T14:32:32;6.33;;;3.47;;
11100;SDS011;5604;50.722;7.078;2022-12-07T14:35:08;8.87;;;3.13;;
11100;SDS011;5604;50.722;7.078;2022-12-07T14:37:39;8.13;;;3.63;;
11100;SDS011;5604;50.722;7.078;2022-12-07T14:40:12;8.40;;;3.60;;
11100;SDS011;5604;50.722;7.078;2022-12-07T14:42:41;5.67;;;4.10;;
11100;SDS011;5604;50.722;7.078;2022-12-07T14:45:13;9.23;;;4.63;;
11100;SDS011;5604;50.722;7.078;2022-12-07T14:47:41;6.93;;;4.23;;
11100;SDS011;5604;50.722;7.078;2022-12-07T14:50:32;8.30;;;4.87;;
11100;SDS011;5604;50.722;7.078;2022-12-07T14:53:05;8.00;;;5.13;;
11100;SDS011;5604;50.722;7.078;2022-12-07T14:55:46;8.23;;;5.53;;
11100;SDS011;5604;50.722;7.078;2022-12-07T14:58:14;10.17;;;5.97;;
11100;SDS011;5604;50.722;7.078;2022-12-07T15:00:43;10.77;;;6.20;;
11100;SDS011;5604;50.722;7.078;2022-12-07T15:03:12;9.73;;;6.43;;
11100;SDS011;5604;50.722;7.078;2022-12-07T15:05:42;9.57;;;6.27;;
11100;SDS011;5604;50.722;7.078;2022-12-07T15:08:10;8.87;;;7.37;;
11100;SDS011;5604;50.722;7.078;2022-12-07T15:10:40;10.60;;;7.27;;
11100;SDS011;5604;50.722;7.078;2022-12-07T15:13:08;13.80;;;8.43;;
11100;SDS011;5604;50.722;7.078;2022-12-07T15:15:54;16.30;;;8.43;;
11100;SDS011;5604;50.722;7.078;2022-12-07T15:18:23;13.07;;;8.23;;
11100;SDS011;5604;50.722;7.078;2022-12-07T15:20:53;11.73;;;8.30;;
11100;SDS011;5604;50.722;7.078;2022-12-07T15:23:21;13.93;;;8.33;;
11100;SDS011;5604;50.722;7.078;2022-12-07T15:25:49;13.60;;;8.10;;
11100;SDS011;5604;50.722;7.078;2022-12-07T15:28:17;16.00;;;8.57;;
11100;SDS011;5604;50.722;7.078;2022-12-07T15:30:46;13.97;;;8.57;;
11100;SDS011;5604;50.722;7.078;2022-12-07T15:33:14;12.77;;;8.63;;
11100;SDS011;5604;50.722;7.078;2022-12-07T15:35:43;12.97;;;7.83;;